Solsberry, Indiana
Current Conditions -  °F | °C
As of 8:53 AM on Monday 20 Oct 2014 (Local Time) from KBMG Reporting Station
Overcast Overcast  
Wind Chill: 10°   Ceiling: 10000
Heat Index: 10°   Visibility: 10mi
Dew Point:   Wind: 8mph
Humidity: 83%   Direction: 210°SSW
Pressure: 29.97"   Gusts: NA
Location:  39.08°N, 86.76°W
Report Text: KBMG 201253Z AUTO 21007KT 10SM BKN100 OVC120 10/07 A2997 RMK AO2 SLP150 T01000072
Loading
Personal Weather Stations






























Interactive Weather Map
Tropical Storm Tracking
New forecast layout! Learn more

10-Day Weather Forecast

Advertisements
Track Severe Weather on mobile